createdAt,value
2022-11-05T00:00:00.806Z,15.70
2022-11-05T00:05:23.060Z,17.20
2022-11-05T00:10:31.173Z,14.80
2022-11-05T00:15:53.234Z,14.10
2022-11-05T00:20:56.850Z,14.10
2022-11-05T00:26:02.408Z,13.40
2022-11-05T00:31:10.094Z,15.20
2022-11-05T00:36:13.132Z,13.10
2022-11-05T00:41:16.544Z,12.30
2022-11-05T00:46:19.955Z,13.00
2022-11-05T00:51:23.470Z,20.70
2022-11-05T00:56:26.993Z,14.00
2022-11-05T01:01:30.387Z,12.50
2022-11-05T01:06:33.814Z,12.70
2022-11-05T01:21:43.953Z,12.00
2022-11-05T01:31:50.261Z,12.20
2022-11-05T01:36:53.369Z,12.80
2022-11-05T01:41:56.883Z,11.20
2022-11-05T01:52:05.244Z,11.70
2022-11-05T01:57:10.894Z,11.20
2022-11-05T02:02:14.479Z,11.10
2022-11-05T02:07:19.374Z,12.10
2022-11-05T02:12:24.081Z,11.60
2022-11-05T02:17:27.223Z,7.80
2022-11-05T02:27:42.753Z,16.80
2022-11-05T02:33:05.007Z,17.20
2022-11-05T02:38:23.063Z,17.00
2022-11-05T02:43:33.848Z,19.30
2022-11-05T02:48:58.355Z,16.90
2022-11-05T02:54:26.140Z,34.10
2022-11-05T02:59:29.758Z,15.90
2022-11-05T03:04:33.481Z,15.00
2022-11-05T03:09:48.667Z,16.20
2022-11-05T03:15:32.330Z,16.70
2022-11-05T03:20:43.928Z,21.80
2022-11-05T03:25:51.895Z,19.80
2022-11-05T03:30:57.308Z,23.10
2022-11-05T03:36:07.286Z,20.50
2022-11-05T03:41:14.345Z,16.40
2022-11-05T03:46:32.324Z,17.50
2022-11-05T03:51:53.557Z,13.30
2022-11-05T03:57:11.074Z,15.80
2022-11-05T04:02:16.350Z,14.30
2022-11-05T04:07:38.512Z,15.60
2022-11-05T04:13:00.556Z,18.30
2022-11-05T04:18:03.869Z,20.00
2022-11-05T04:23:26.531Z,21.60
2022-11-05T04:28:49.707Z,20.00
2022-11-05T04:33:53.017Z,19.70
2022-11-05T04:38:56.635Z,20.90
2022-11-05T04:49:03.051Z,21.70
2022-11-05T04:59:09.697Z,22.80
2022-11-05T05:04:13.596Z,16.80
2022-11-05T05:09:16.908Z,17.50
2022-11-05T05:14:20.217Z,18.10
2022-11-05T05:24:27.964Z,15.90
2022-11-05T05:29:31.172Z,15.10
2022-11-05T05:39:37.589Z,16.90
2022-11-05T05:44:41.209Z,16.60
2022-11-05T05:54:47.526Z,18.30
2022-11-05T05:59:50.933Z,18.50
2022-11-05T06:04:54.652Z,19.00
2022-11-05T06:09:57.860Z,17.20
2022-11-05T06:20:05.712Z,18.50
2022-11-05T06:25:10.044Z,19.20
2022-11-05T06:30:14.892Z,20.70
2022-11-05T06:35:18.199Z,19.80
2022-11-05T06:45:24.926Z,18.90
2022-11-05T06:55:32.572Z,19.10
2022-11-05T07:00:36.534Z,17.70
2022-11-05T07:05:44.207Z,17.80
2022-11-05T07:10:48.438Z,17.20
2022-11-05T07:15:51.783Z,18.40
2022-11-05T07:20:57.624Z,18.10
2022-11-05T07:26:01.446Z,20.50
2022-11-05T07:31:05.980Z,19.90
2022-11-05T07:36:10.528Z,25.20
2022-11-05T07:41:13.935Z,23.50
2022-11-05T07:46:19.608Z,22.40
2022-11-05T07:51:23.014Z,21.90
2022-11-05T07:56:26.837Z,23.10
2022-11-05T08:01:30.352Z,24.90
2022-11-05T08:06:33.760Z,24.60
2022-11-05T08:16:41.203Z,26.70
2022-11-05T08:21:44.830Z,31.00
2022-11-05T08:26:48.340Z,29.30
2022-11-05T08:31:51.623Z,29.30
2022-11-05T08:36:55.182Z,26.40
2022-11-05T08:41:58.472Z,28.60
2022-11-05T08:47:03.011Z,30.10
2022-11-05T08:52:06.532Z,50.30
2022-11-05T08:57:10.045Z,50.10
2022-11-05T09:02:13.590Z,41.20
2022-11-05T09:07:16.964Z,47.70
2022-11-05T09:17:24.635Z,41.70
2022-11-05T09:22:29.002Z,48.20
2022-11-05T09:27:32.459Z,55.40
2022-11-05T09:32:35.684Z,67.90
2022-11-05T09:42:52.936Z,30.30
2022-11-05T09:48:02.217Z,45.70
2022-11-05T09:53:06.569Z,40.30
2022-11-05T09:58:28.823Z,31.40
2022-11-05T10:03:34.542Z,33.70
2022-11-05T10:08:44.384Z,28.80
2022-11-05T10:13:51.099Z,32.40
2022-11-05T10:19:24.743Z,34.30
2022-11-05T10:24:28.543Z,69.80
2022-11-05T10:29:34.923Z,40.90
2022-11-05T10:34:39.593Z,36.20
2022-11-05T10:39:43.717Z,31.40
2022-11-05T10:45:44.044Z,23.20
2022-11-05T10:50:48.683Z,20.30
2022-11-05T10:55:54.250Z,23.40
2022-11-05T11:00:57.517Z,24.20
2022-11-05T11:06:21.141Z,23.20
2022-11-05T11:16:44.248Z,22.30
2022-11-05T11:22:08.155Z,23.50
2022-11-05T11:27:16.164Z,22.10
2022-11-05T11:32:21.659Z,21.60
2022-11-05T11:37:34.867Z,23.00
2022-11-05T11:47:46.081Z,21.70
2022-11-05T11:52:49.818Z,22.20
2022-11-05T11:58:05.109Z,18.30
2022-11-05T12:03:21.720Z,22.00
2022-11-05T12:08:58.355Z,21.90
2022-11-05T12:14:06.077Z,18.70
2022-11-05T12:19:42.320Z,17.80
2022-11-05T12:25:11.779Z,17.20
2022-11-05T12:30:20.416Z,14.80
2022-11-05T12:35:48.241Z,15.60
2022-11-05T12:41:22.840Z,14.90
2022-11-05T12:46:41.480Z,15.30
2022-11-05T12:51:56.769Z,46.20
2022-11-05T12:57:04.055Z,22.00
2022-11-05T13:02:19.526Z,16.20
2022-11-05T13:07:32.191Z,14.70
2022-11-05T13:12:39.326Z,13.20
2022-11-05T13:18:24.288Z,12.60
2022-11-05T13:23:32.814Z,11.10
2022-11-05T13:29:00.222Z,12.20
2022-11-05T13:34:11.016Z,12.60
2022-11-05T13:39:23.910Z,12.80
2022-11-05T13:44:32.750Z,14.10
2022-11-05T13:49:45.376Z,16.60
2022-11-05T13:55:26.166Z,11.70
2022-11-05T14:00:37.496Z,11.60
2022-11-05T14:05:42.856Z,12.00
2022-11-05T14:10:58.933Z,11.90
2022-11-05T14:16:07.989Z,11.60
2022-11-05T14:21:26.853Z,12.90
2022-11-05T14:26:34.783Z,12.40
2022-11-05T14:37:13.030Z,10.00
2022-11-05T14:42:22.270Z,11.20
2022-11-05T14:47:29.893Z,11.80
2022-11-05T14:52:33.715Z,11.40
2022-11-05T14:57:42.763Z,12.70
2022-11-05T15:03:05.939Z,11.70
2022-11-05T15:08:25.937Z,11.20
2022-11-05T15:13:34.878Z,11.50
2022-11-05T15:18:46.275Z,11.30
2022-11-05T15:23:53.073Z,11.00
2022-11-05T15:28:57.409Z,11.20
2022-11-05T15:34:15.872Z,11.40
2022-11-05T15:39:42.224Z,15.80
2022-11-05T15:44:48.418Z,17.60
2022-11-05T15:49:51.712Z,18.50
2022-11-05T16:00:24.066Z,13.10
2022-11-05T16:05:34.215Z,29.40
2022-11-05T16:10:39.375Z,17.80
2022-11-05T16:15:54.225Z,13.10
2022-11-05T16:21:07.321Z,11.70
2022-11-05T16:26:55.861Z,10.80
2022-11-05T16:31:54.170Z,10.20
2022-11-05T16:36:59.504Z,9.80
2022-11-05T16:42:22.884Z,10.10
2022-11-05T16:47:26.846Z,9.60
2022-11-05T16:52:30.097Z,8.40
2022-11-05T16:57:35.647Z,21.60
2022-11-05T17:02:39.193Z,26.30
2022-11-05T17:07:43.426Z,35.00
2022-11-05T17:12:46.940Z,35.00
2022-11-05T17:17:51.694Z,14.20
2022-11-05T17:22:56.020Z,21.20
2022-11-05T17:28:00.047Z,14.50
2022-11-05T17:33:03.339Z,18.40
2022-11-05T17:38:06.970Z,15.70
2022-11-05T17:43:10.831Z,12.00
2022-11-05T17:48:16.399Z,11.40
2022-11-05T17:53:20.387Z,14.50
2022-11-05T17:58:24.411Z,17.00
2022-11-05T18:03:28.347Z,17.00
2022-11-05T18:08:32.527Z,26.40
2022-11-05T18:13:36.392Z,19.70
2022-11-05T18:18:39.702Z,24.00
2022-11-05T18:23:43.428Z,25.00
2022-11-05T18:28:46.946Z,22.40
2022-11-05T18:33:51.486Z,16.30
2022-11-05T18:38:58.034Z,20.30
2022-11-05T18:44:03.599Z,19.50
2022-11-05T18:49:08.378Z,16.20
2022-11-05T18:54:11.886Z,17.00
2022-11-05T19:05:00.303Z,15.50
2022-11-05T19:10:08.141Z,17.20
2022-11-05T19:15:12.597Z,13.00
2022-11-05T19:20:16.873Z,10.80
2022-11-05T19:25:20.302Z,10.00
2022-11-05T19:30:26.371Z,10.50
2022-11-05T19:35:29.777Z,11.10
2022-11-05T19:45:44.461Z,9.50
2022-11-05T19:50:49.229Z,13.40
2022-11-05T19:55:52.958Z,9.60
2022-11-05T20:00:56.464Z,13.10
2022-11-05T20:06:06.182Z,9.80
2022-11-05T20:11:09.539Z,8.30
2022-11-05T20:16:20.800Z,8.30
2022-11-05T20:21:26.247Z,13.60
2022-11-05T20:26:31.185Z,9.90
2022-11-05T20:31:35.131Z,10.30
2022-11-05T20:36:39.457Z,12.10
2022-11-05T20:41:42.918Z,21.10
2022-11-05T20:46:46.333Z,16.20
2022-11-05T20:51:49.640Z,14.70
2022-11-05T21:01:57.082Z,15.60
2022-11-05T21:07:01.155Z,18.30
2022-11-05T21:12:10.573Z,20.70
2022-11-05T21:17:14.893Z,19.00
2022-11-05T21:22:18.000Z,17.70
2022-11-05T21:32:24.313Z,16.60
2022-11-05T21:37:27.624Z,17.30
2022-11-05T21:47:35.489Z,15.00
2022-11-05T21:52:57.729Z,15.10
2022-11-05T21:58:24.283Z,13.80
2022-11-05T22:03:28.211Z,12.10
2022-11-05T22:08:31.314Z,12.50
2022-11-05T22:13:35.039Z,12.40
2022-11-05T22:18:38.446Z,11.00
2022-11-05T22:28:45.684Z,11.00
2022-11-05T22:38:52.404Z,10.30
2022-11-05T22:49:01.602Z,10.70
2022-11-05T22:54:07.551Z,10.90
2022-11-05T22:59:15.770Z,11.10
2022-11-05T23:04:19.815Z,11.30
2022-11-05T23:09:53.332Z,12.00
2022-11-05T23:14:58.511Z,13.00
2022-11-05T23:20:20.327Z,11.70
2022-11-05T23:25:25.070Z,11.10
2022-11-05T23:30:28.379Z,11.00
2022-11-05T23:41:25.587Z,9.70
2022-11-05T23:46:47.332Z,9.90
2022-11-05T23:51:50.953Z,11.10
2022-11-05T23:56:54.683Z,12.00
